Kakushu Maru — JG5688 — position and weather

sailwx.info

Track history (hours):
 
Tides and Currents Weather Stations Pressure Air Temp Water Temp Dewpoint Dewpoint Depression Visibility Wind Speed Wind Dir Waves Ship Positions

Kakushu Maru

Last reported at 2015-May-27 15:26 UTC. Time now 2015-May-30 12:35 UTC.
Position N 35°43' E 140°57'.

Length 105 m; draft 6.5 m.

Type: Tanker. MMSI: 431101016.

Date/timePositionNaut miles runAvg speedWind from/ knotsBaromVisibWave heightAir tempDewpointWater temp
2015-May-27 15:26N 35°43' E 140°57'1313.3
2015-May-27 14:25N 35°31' E 140°50'2915.4
2015-May-27 12:31N 35°08' E 140°28'1414.1
2015-May-27 11:33N 35°00' E 140°15'1613.1
2015-May-27 10:21N 34°52' E 139°58'1011.4
2015-May-27 09:28N 34°53' E 139°46'1111.8
2015-May-27 08:33N 35°03' E 139°43'1313.1
2015-May-27 07:33N 35°16' E 139°46'1110.6
2015-May-27 06:33N 35°26' E 139°47'1312.6
2015-May-27 05:33N 35°31' E 140°01'2 1.4
2015-May-27 04:30N 35°31' E 140°03'0 0.0
2015-May-27 03:33N 35°31' E 140°03'0 0.0
2015-May-27 02:30N 35°31' E 140°03'0 0.0
2015-May-27 01:33N 35°31' E 140°03'0 0.0
2015-May-27 00:33N 35°31' E 140°03'0 0.0
2015-May-26 23:33N 35°31' E 140°03'0 0.0
2015-May-26 22:21N 35°31' E 140°03'1 1.0
2015-May-26 21:32N 35°31' E 140°02'2 1.3
2015-May-26 20:16N 35°33' E 140°01'0 0.0
2015-May-26 19:28N 35°33' E 140°01'0 0.0
2015-May-26 18:28N 35°33' E 140°01'0 0.0
2015-May-26 17:16N 35°33' E 140°01'0 0.0
2015-May-26 16:22N 35°33' E 140°01'0 0.0
2015-May-26 15:28N 35°33' E 140°01'0 0.0
2015-May-26 14:28N 35°33' E 140°01'0 0.0
2015-May-26 13:28N 35°33' E 140°01'0 0.0
2015-May-26 12:28N 35°33' E 140°01'0 0.0
2015-May-26 11:22N 35°33' E 140°01'0 0.0
2015-May-26 10:04N 35°33' E 140°01'0 0.1
2015-May-26 09:28N 35°33' E 140°01'8 8.3
2015-May-26 08:33N 35°31' E 139°52'5 4.9
2015-May-26 07:33N 35°31' E 139°46'0 0.0
2015-May-26 06:33N 35°31' E 139°46'0 0.0
2015-May-26 05:30N 35°31' E 139°46'0 0.0
2015-May-26 04:33N 35°31' E 139°46'0 0.0
2015-May-26 03:33N 35°31' E 139°46'4 4.4
2015-May-26 02:33N 35°28' E 139°42'8 7.8
2015-May-26 01:33N 35°20' E 139°44'1111.1
2015-May-26 00:33N 35°09' E 139°46'1211.4
2015-May-25 23:32N 34°58' E 139°42'1410.5
2015-May-25 22:13N 34°51' E 139°57'914.0
2015-May-25 21:32N 34°56' E 140°06'1413.9
2015-May-25 20:31N 35°04' E 140°20'1312.7
2015-May-25 19:29N 35°11' E 140°34'1110.9
2015-May-25 18:27N 35°21' E 140°42'1411.0
2015-May-25 17:09N 35°33' E 140°51'6113.3
2015-May-25 12:31N 36°33' E 141°08'1613.5
2015-May-25 11:22N 36°48' E 141°12'1113.3
2015-May-25 10:32N 36°59' E 141°14'  
Track history (hours):
 
Tides and Currents Weather Stations Pressure Air Temp Water Temp Dewpoint Dewpoint Depression Visibility Wind Speed Wind Dir Waves Ship Positions

Kakushu Maru

Last reported at 2015-May-27 15:26 UTC. Time now 2015-May-30 12:35 UTC.
Position N 35°43' E 140°57'.

Length 105 m; draft 6.5 m.

Type: Tanker. MMSI: 431101016.

Date/timePositionNaut miles runAvg speedWind from/ knotsBaromVisibWave heightAir tempDewpointWater temp
2015-May-27 15:26N 35°43' E 140°57'1313.3
2015-May-27 14:25N 35°31' E 140°50'2915.4
2015-May-27 12:31N 35°08' E 140°28'1414.1
2015-May-27 11:33N 35°00' E 140°15'1613.1
2015-May-27 10:21N 34°52' E 139°58'1011.4
2015-May-27 09:28N 34°53' E 139°46'1111.8
2015-May-27 08:33N 35°03' E 139°43'1313.1
2015-May-27 07:33N 35°16' E 139°46'1110.6
2015-May-27 06:33N 35°26' E 139°47'1312.6
2015-May-27 05:33N 35°31' E 140°01'2 1.4
2015-May-27 04:30N 35°31' E 140°03'0 0.0
2015-May-27 03:33N 35°31' E 140°03'0 0.0
2015-May-27 02:30N 35°31' E 140°03'0 0.0
2015-May-27 01:33N 35°31' E 140°03'0 0.0
2015-May-27 00:33N 35°31' E 140°03'0 0.0
2015-May-26 23:33N 35°31' E 140°03'0 0.0
2015-May-26 22:21N 35°31' E 140°03'1 1.0
2015-May-26 21:32N 35°31' E 140°02'2 1.3
2015-May-26 20:16N 35°33' E 140°01'0 0.0
2015-May-26 19:28N 35°33' E 140°01'0 0.0
2015-May-26 18:28N 35°33' E 140°01'0 0.0
2015-May-26 17:16N 35°33' E 140°01'0 0.0
2015-May-26 16:22N 35°33' E 140°01'0 0.0
2015-May-26 15:28N 35°33' E 140°01'0 0.0
2015-May-26 14:28N 35°33' E 140°01'0 0.0
2015-May-26 13:28N 35°33' E 140°01'0 0.0
2015-May-26 12:28N 35°33' E 140°01'0 0.0
2015-May-26 11:22N 35°33' E 140°01'0 0.0
2015-May-26 10:04N 35°33' E 140°01'0 0.1
2015-May-26 09:28N 35°33' E 140°01'8 8.3
2015-May-26 08:33N 35°31' E 139°52'5 4.9
2015-May-26 07:33N 35°31' E 139°46'0 0.0
2015-May-26 06:33N 35°31' E 139°46'0 0.0
2015-May-26 05:30N 35°31' E 139°46'0 0.0
2015-May-26 04:33N 35°31' E 139°46'0 0.0
2015-May-26 03:33N 35°31' E 139°46'4 4.4
2015-May-26 02:33N 35°28' E 139°42'8 7.8
2015-May-26 01:33N 35°20' E 139°44'1111.1
2015-May-26 00:33N 35°09' E 139°46'1211.4
2015-May-25 23:32N 34°58' E 139°42'1410.5
2015-May-25 22:13N 34°51' E 139°57'914.0
2015-May-25 21:32N 34°56' E 140°06'1413.9
2015-May-25 20:31N 35°04' E 140°20'1312.7
2015-May-25 19:29N 35°11' E 140°34'1110.9
2015-May-25 18:27N 35°21' E 140°42'1411.0
2015-May-25 17:09N 35°33' E 140°51'6113.3
2015-May-25 12:31N 36°33' E 141°08'1613.5
2015-May-25 11:22N 36°48' E 141°12'1113.3
2015-May-25 10:32N 36°59' E 141°14'  

Dump ship's entire track history